sensor_id;sensor_type;location;lat;lon;timestamp;pressure;altitude;pressure_sealevel;temperature;humidity
65013;BME280;51715;39.432;-77.518;2023-12-07T00:00:14;99916.55;;;7.57;29.47
65013;BME280;51715;39.432;-77.518;2023-12-07T00:02:43;99915.09;;;6.29;29.94
65013;BME280;51715;39.432;-77.518;2023-12-07T00:05:10;99914.11;;;6.67;29.82
65013;BME280;51715;39.432;-77.518;2023-12-07T00:07:40;99916.11;;;6.28;30.35
65013;BME280;51715;39.432;-77.518;2023-12-07T00:10:10;99920.48;;;6.24;30.45
65013;BME280;51715;39.432;-77.518;2023-12-07T00:12:39;99918.90;;;6.33;30.11
65013;BME280;51715;39.432;-77.518;2023-12-07T00:15:09;99918.92;;;6.50;30.32
65013;BME280;51715;39.432;-77.518;2023-12-07T00:17:38;99914.57;;;6.35;30.33
65013;BME280;51715;39.432;-77.518;2023-12-07T00:20:08;99911.47;;;6.42;30.53
65013;BME280;51715;39.432;-77.518;2023-12-07T00:22:37;99910.33;;;6.16;30.70
65013;BME280;51715;39.432;-77.518;2023-12-07T00:25:08;99903.18;;;6.28;30.70
65013;BME280;51715;39.432;-77.518;2023-12-07T00:27:37;99900.10;;;6.48;30.66
65013;BME280;51715;39.432;-77.518;2023-12-07T00:30:07;99899.48;;;6.08;30.60
65013;BME280;51715;39.432;-77.518;2023-12-07T00:32:36;99895.74;;;6.43;30.77
65013;BME280;51715;39.432;-77.518;2023-12-07T00:35:06;99892.80;;;5.77;31.15
65013;BME280;51715;39.432;-77.518;2023-12-07T00:37:34;99894.40;;;5.60;31.23
65013;BME280;51715;39.432;-77.518;2023-12-07T00:40:03;99897.02;;;4.87;31.89
65013;BME280;51715;39.432;-77.518;2023-12-07T00:42:31;99893.10;;;5.62;32.01
65013;BME280;51715;39.432;-77.518;2023-12-07T00:44:59;99897.37;;;5.31;32.05
65013;BME280;51715;39.432;-77.518;2023-12-07T00:47:29;99901.91;;;5.39;32.06
65013;BME280;51715;39.432;-77.518;2023-12-07T00:49:58;99902.94;;;5.54;31.93
65013;BME280;51715;39.432;-77.518;2023-12-07T00:52:26;99905.24;;;5.30;31.97
65013;BME280;51715;39.432;-77.518;2023-12-07T00:54:55;99905.17;;;5.33;32.08
65013;BME280;51715;39.432;-77.518;2023-12-07T00:57:24;99911.44;;;4.59;32.83
65013;BME280;51715;39.432;-77.518;2023-12-07T00:59:53;99907.93;;;5.00;32.78
65013;BME280;51715;39.432;-77.518;2023-12-07T01:02:21;99911.43;;;5.03;32.48
65013;BME280;51715;39.432;-77.518;2023-12-07T01:04:49;99917.36;;;5.25;32.40
65013;BME280;51715;39.432;-77.518;2023-12-07T01:07:17;99923.82;;;5.51;32.14
65013;BME280;51715;39.432;-77.518;2023-12-07T01:09:45;99922.72;;;5.54;32.16
65013;BME280;51715;39.432;-77.518;2023-12-07T01:12:13;99930.30;;;5.27;31.89
65013;BME280;51715;39.432;-77.518;2023-12-07T01:14:42;99931.10;;;5.67;32.05
65013;BME280;51715;39.432;-77.518;2023-12-07T01:17:10;99933.92;;;5.82;31.84
65013;BME280;51715;39.432;-77.518;2023-12-07T01:19:38;99933.83;;;5.04;32.10
65013;BME280;51715;39.432;-77.518;2023-12-07T01:22:07;99934.52;;;5.50;32.09
65013;BME280;51715;39.432;-77.518;2023-12-07T01:24:36;99935.49;;;5.00;32.66
65013;BME280;51715;39.432;-77.518;2023-12-07T01:27:06;99943.27;;;5.04;32.65
65013;BME280;51715;39.432;-77.518;2023-12-07T01:29:34;99948.05;;;5.36;32.32
65013;BME280;51715;39.432;-77.518;2023-12-07T01:32:03;99956.59;;;5.64;32.07
65013;BME280;51715;39.432;-77.518;2023-12-07T01:34:32;99956.38;;;5.39;32.14
65013;BME280;51715;39.432;-77.518;2023-12-07T01:37:02;99958.93;;;5.25;32.27
65013;BME280;51715;39.432;-77.518;2023-12-07T01:39:31;99955.15;;;5.24;32.47
65013;BME280;51715;39.432;-77.518;2023-12-07T01:42:00;99957.26;;;5.43;32.12
65013;BME280;51715;39.432;-77.518;2023-12-07T01:44:30;99956.75;;;5.19;31.78
65013;BME280;51715;39.432;-77.518;2023-12-07T01:46:58;99954.74;;;5.17;32.41
65013;BME280;51715;39.432;-77.518;2023-12-07T01:49:28;99953.44;;;5.62;32.06
65013;BME280;51715;39.432;-77.518;2023-12-07T01:51:58;99953.88;;;5.77;31.97
65013;BME280;51715;39.432;-77.518;2023-12-07T01:54:27;99952.23;;;5.36;31.95
65013;BME280;51715;39.432;-77.518;2023-12-07T01:56:56;99949.45;;;5.53;32.17
65013;BME280;51715;39.432;-77.518;2023-12-07T01:59:24;99941.58;;;5.50;32.33
65013;BME280;51715;39.432;-77.518;2023-12-07T02:01:54;99943.13;;;5.08;32.66
65013;BME280;51715;39.432;-77.518;2023-12-07T02:04:22;99947.66;;;4.64;32.92
65013;BME280;51715;39.432;-77.518;2023-12-07T02:06:52;99939.68;;;4.87;33.27
65013;BME280;51715;39.432;-77.518;2023-12-07T02:09:23;99943.51;;;4.62;33.71
65013;BME280;51715;39.432;-77.518;2023-12-07T02:11:53;99945.19;;;4.65;33.98
65013;BME280;51715;39.432;-77.518;2023-12-07T02:14:21;99941.35;;;4.55;34.12
65013;BME280;51715;39.432;-77.518;2023-12-07T02:16:54;99946.64;;;4.51;33.73
65013;BME280;51715;39.432;-77.518;2023-12-07T02:19:43;99949.99;;;4.20;34.17
65013;BME280;51715;39.432;-77.518;2023-12-07T02:22:18;99949.68;;;4.08;34.13
65013;BME280;51715;39.432;-77.518;2023-12-07T02:25:04;99951.69;;;4.27;34.22
65013;BME280;51715;39.432;-77.518;2023-12-07T02:27:37;99951.47;;;3.71;34.68
65013;BME280;51715;39.432;-77.518;2023-12-07T02:30:08;99956.21;;;4.20;34.70
65013;BME280;51715;39.432;-77.518;2023-12-07T02:32:38;99959.41;;;3.49;35.11
65013;BME280;51715;39.432;-77.518;2023-12-07T02:35:09;99961.30;;;4.09;34.83
65013;BME280;51715;39.432;-77.518;2023-12-07T02:37:43;99963.21;;;4.40;34.54
65013;BME280;51715;39.432;-77.518;2023-12-07T02:40:16;99964.23;;;4.41;34.30
65013;BME280;51715;39.432;-77.518;2023-12-07T02:42:46;99967.13;;;4.48;33.99
65013;BME280;51715;39.432;-77.518;2023-12-07T02:45:16;99970.05;;;4.70;33.76
65013;BME280;51715;39.432;-77.518;2023-12-07T02:47:47;99963.95;;;4.79;33.58
65013;BME280;51715;39.432;-77.518;2023-12-07T02:50:15;99965.87;;;4.73;33.45
65013;BME280;51715;39.432;-77.518;2023-12-07T02:52:45;99965.77;;;4.31;33.98
65013;BME280;51715;39.432;-77.518;2023-12-07T02:55:15;99964.33;;;4.76;34.10
65013;BME280;51715;39.432;-77.518;2023-12-07T02:57:45;99966.68;;;4.43;33.99
65013;BME280;51715;39.432;-77.518;2023-12-07T03:00:14;99964.35;;;4.58;34.35
65013;BME280;51715;39.432;-77.518;2023-12-07T03:02:43;99962.96;;;4.45;34.30
65013;BME280;51715;39.432;-77.518;2023-12-07T03:05:13;99968.37;;;4.21;34.49
65013;BME280;51715;39.432;-77.518;2023-12-07T03:07:42;99966.90;;;3.50;34.80
65013;BME280;51715;39.432;-77.518;2023-12-07T03:10:10;99969.60;;;3.95;35.10
65013;BME280;51715;39.432;-77.518;2023-12-07T03:12:39;99973.57;;;3.00;35.66
65013;BME280;51715;39.432;-77.518;2023-12-07T03:15:09;99974.09;;;4.04;35.31
65013;BME280;51715;39.432;-77.518;2023-12-07T03:17:38;99981.14;;;4.08;34.96
65013;BME280;51715;39.432;-77.518;2023-12-07T03:20:07;99985.86;;;4.37;34.84
65013;BME280;51715;39.432;-77.518;2023-12-07T03:22:37;99988.77;;;4.92;34.40
65013;BME280;51715;39.432;-77.518;2023-12-07T03:25:06;99987.53;;;4.43;34.16
65013;BME280;51715;39.432;-77.518;2023-12-07T03:27:35;99985.92;;;4.30;34.03
65013;BME280;51715;39.432;-77.518;2023-12-07T03:30:04;99988.11;;;4.57;34.00
65013;BME280;51715;39.432;-77.518;2023-12-07T03:32:33;100000.25;;;4.74;33.75
65013;BME280;51715;39.432;-77.518;2023-12-07T03:35:03;100006.96;;;4.90;33.59
65013;BME280;51715;39.432;-77.518;2023-12-07T03:37:31;100003.94;;;4.84;33.46
65013;BME280;51715;39.432;-77.518;2023-12-07T03:40:00;100009.62;;;5.01;33.39
65013;BME280;51715;39.432;-77.518;2023-12-07T03:42:29;100008.29;;;4.58;33.39
65013;BME280;51715;39.432;-77.518;2023-12-07T03:44:58;100010.26;;;4.42;34.13
65013;BME280;51715;39.432;-77.518;2023-12-07T03:47:26;100016.30;;;4.36;34.06
65013;BME280;51715;39.432;-77.518;2023-12-07T03:49:55;100014.84;;;4.53;33.77
65013;BME280;51715;39.432;-77.518;2023-12-07T03:52:24;100014.48;;;4.37;33.76
65013;BME280;51715;39.432;-77.518;2023-12-07T03:54:53;100016.79;;;4.55;33.75
65013;BME280;51715;39.432;-77.518;2023-12-07T03:57:22;100006.15;;;4.42;34.12
65013;BME280;51715;39.432;-77.518;2023-12-07T03:59:51;99994.51;;;4.35;33.78
65013;BME280;51715;39.432;-77.518;2023-12-07T04:02:20;99989.58;;;4.52;33.71
65013;BME280;51715;39.432;-77.518;2023-12-07T04:04:49;99987.70;;;4.55;33.70
65013;BME280;51715;39.432;-77.518;2023-12-07T04:07:18;99990.87;;;4.37;33.76
65013;BME280;51715;39.432;-77.518;2023-12-07T04:09:46;99993.34;;;4.24;34.08
65013;BME280;51715;39.432;-77.518;2023-12-07T04:12:15;99995.84;;;3.99;34.36
65013;BME280;51715;39.432;-77.518;2023-12-07T04:14:44;99992.73;;;4.28;34.29
65013;BME280;51715;39.432;-77.518;2023-12-07T04:17:12;99990.24;;;4.31;34.24
65013;BME280;51715;39.432;-77.518;2023-12-07T04:19:40;99989.10;;;4.60;34.10
65013;BME280;51715;39.432;-77.518;2023-12-07T04:22:08;99988.53;;;4.52;33.94
65013;BME280;51715;39.432;-77.518;2023-12-07T04:24:37;99983.24;;;4.37;34.03
65013;BME280;51715;39.432;-77.518;2023-12-07T04:27:06;99984.08;;;4.48;33.84
65013;BME280;51715;39.432;-77.518;2023-12-07T04:29:34;99982.26;;;4.27;34.15
65013;BME280;51715;39.432;-77.518;2023-12-07T04:32:02;99980.74;;;4.33;33.84
65013;BME280;51715;39.432;-77.518;2023-12-07T04:34:31;99986.83;;;4.29;33.71
65013;BME280;51715;39.432;-77.518;2023-12-07T04:37:00;99983.62;;;4.39;33.57
65013;BME280;51715;39.432;-77.518;2023-12-07T04:39:28;99985.55;;;4.66;33.50
65013;BME280;51715;39.432;-77.518;2023-12-07T04:41:56;99986.16;;;5.02;33.38
65013;BME280;51715;39.432;-77.518;2023-12-07T04:44:24;99986.17;;;5.01;33.57
65013;BME280;51715;39.432;-77.518;2023-12-07T04:46:52;99984.01;;;4.72;33.53
65013;BME280;51715;39.432;-77.518;2023-12-07T04:49:20;99986.08;;;4.64;33.49
65013;BME280;51715;39.432;-77.518;2023-12-07T04:51:48;99986.45;;;4.87;33.50
65013;BME280;51715;39.432;-77.518;2023-12-07T04:54:16;99991.15;;;4.26;33.60
65013;BME280;51715;39.432;-77.518;2023-12-07T04:56:44;99994.93;;;4.36;33.72
65013;BME280;51715;39.432;-77.518;2023-12-07T04:59:13;99987.84;;;4.62;33.72
65013;BME280;51715;39.432;-77.518;2023-12-07T05:03:58;99991.73;;;4.15;33.40
65013;BME280;51715;39.432;-77.518;2023-12-07T05:06:26;99987.98;;;4.35;33.46
65013;BME280;51715;39.432;-77.518;2023-12-07T05:08:54;99979.68;;;4.15;33.17
65013;BME280;51715;39.432;-77.518;2023-12-07T05:11:22;99975.01;;;4.58;33.04
65013;BME280;51715;39.432;-77.518;2023-12-07T05:13:50;99974.17;;;4.66;33.17
65013;BME280;51715;39.432;-77.518;2023-12-07T05:16:19;99976.41;;;4.53;33.41
65013;BME280;51715;39.432;-77.518;2023-12-07T05:18:46;99974.30;;;4.45;33.78
65013;BME280;51715;39.432;-77.518;2023-12-07T05:21:15;99964.18;;;4.35;34.17
65013;BME280;51715;39.432;-77.518;2023-12-07T05:23:42;99962.05;;;4.14;34.80
65013;BME280;51715;39.432;-77.518;2023-12-07T05:26:11;99949.80;;;3.76;35.23
65013;BME280;51715;39.432;-77.518;2023-12-07T05:28:38;99940.75;;;3.12;35.48
65013;BME280;51715;39.432;-77.518;2023-12-07T05:31:06;99934.38;;;3.38;35.39
65013;BME280;51715;39.432;-77.518;2023-12-07T05:33:34;99934.14;;;3.74;35.30
65013;BME280;51715;39.432;-77.518;2023-12-07T05:36:02;99936.99;;;3.47;35.66
65013;BME280;51715;39.432;-77.518;2023-12-07T05:38:30;99929.58;;;3.11;35.81
65013;BME280;51715;39.432;-77.518;2023-12-07T05:40:58;99928.85;;;3.66;35.54
65013;BME280;51715;39.432;-77.518;2023-12-07T05:43:26;99919.94;;;4.11;35.32
65013;BME280;51715;39.432;-77.518;2023-12-07T05:45:54;99920.86;;;3.73;35.58
65013;BME280;51715;39.432;-77.518;2023-12-07T05:48:22;99917.46;;;3.35;35.77
65013;BME280;51715;39.432;-77.518;2023-12-07T05:50:51;99918.44;;;3.08;36.24
65013;BME280;51715;39.432;-77.518;2023-12-07T05:53:18;99920.25;;;3.88;35.63
65013;BME280;51715;39.432;-77.518;2023-12-07T05:55:47;99919.91;;;3.64;35.49
65013;BME280;51715;39.432;-77.518;2023-12-07T05:58:15;99924.30;;;3.93;34.88
65013;BME280;51715;39.432;-77.518;2023-12-07T06:00:43;99916.76;;;4.08;34.62
65013;BME280;51715;39.432;-77.518;2023-12-07T06:03:10;99921.99;;;3.74;34.84
65013;BME280;51715;39.432;-77.518;2023-12-07T06:05:38;99927.23;;;2.96;36.26
65013;BME280;51715;39.432;-77.518;2023-12-07T06:08:06;99931.32;;;3.51;36.27
65013;BME280;51715;39.432;-77.518;2023-12-07T06:10:35;99927.49;;;3.24;36.39
65013;BME280;51715;39.432;-77.518;2023-12-07T06:13:03;99923.74;;;4.03;35.36
65013;BME280;51715;39.432;-77.518;2023-12-07T06:15:31;99929.40;;;4.29;34.65
65013;BME280;51715;39.432;-77.518;2023-12-07T06:17:59;99930.95;;;3.95;34.63
65013;BME280;51715;39.432;-77.518;2023-12-07T06:20:27;99931.48;;;4.27;34.18
65013;BME280;51715;39.432;-77.518;2023-12-07T06:22:55;99929.01;;;4.49;33.61
65013;BME280;51715;39.432;-77.518;2023-12-07T06:25:23;99937.45;;;4.42;33.45
65013;BME280;51715;39.432;-77.518;2023-12-07T06:27:51;99939.71;;;4.00;33.68
65013;BME280;51715;39.432;-77.518;2023-12-07T06:30:18;99936.67;;;4.02;34.00
65013;BME280;51715;39.432;-77.518;2023-12-07T06:32:46;99932.13;;;4.89;33.56
65013;BME280;51715;39.432;-77.518;2023-12-07T06:35:14;99929.95;;;4.76;33.15
65013;BME280;51715;39.432;-77.518;2023-12-07T06:37:42;99933.46;;;4.91;32.91
65013;BME280;51715;39.432;-77.518;2023-12-07T06:40:11;99936.04;;;4.60;33.71
65013;BME280;51715;39.432;-77.518;2023-12-07T06:42:39;99937.82;;;4.48;33.51
65013;BME280;51715;39.432;-77.518;2023-12-07T06:45:08;99934.39;;;4.63;33.30
65013;BME280;51715;39.432;-77.518;2023-12-07T06:47:36;99931.76;;;4.71;33.12
65013;BME280;51715;39.432;-77.518;2023-12-07T06:50:04;99927.21;;;4.79;33.28
65013;BME280;51715;39.432;-77.518;2023-12-07T06:52:33;99924.76;;;4.75;33.01
65013;BME280;51715;39.432;-77.518;2023-12-07T06:55:02;99924.63;;;4.69;33.00
65013;BME280;51715;39.432;-77.518;2023-12-07T06:57:31;99927.02;;;4.96;32.74
65013;BME280;51715;39.432;-77.518;2023-12-07T06:59:59;99925.26;;;4.85;32.56
65013;BME280;51715;39.432;-77.518;2023-12-07T07:02:26;99932.05;;;4.93;32.69
65013;BME280;51715;39.432;-77.518;2023-12-07T07:04:54;99940.02;;;4.69;32.82
65013;BME280;51715;39.432;-77.518;2023-12-07T07:07:22;99941.40;;;4.65;32.72
65013;BME280;51715;39.432;-77.518;2023-12-07T07:09:50;99947.75;;;4.66;32.69
65013;BME280;51715;39.432;-77.518;2023-12-07T07:12:18;99945.16;;;5.10;32.76
65013;BME280;51715;39.432;-77.518;2023-12-07T07:14:46;99935.47;;;4.09;33.29
65013;BME280;51715;39.432;-77.518;2023-12-07T07:17:15;99928.22;;;4.51;33.40
65013;BME280;51715;39.432;-77.518;2023-12-07T07:19:44;99926.87;;;3.98;33.74
65013;BME280;51715;39.432;-77.518;2023-12-07T07:22:11;99923.73;;;4.23;33.63
65013;BME280;51715;39.432;-77.518;2023-12-07T07:24:39;99919.88;;;4.36;33.73
65013;BME280;51715;39.432;-77.518;2023-12-07T07:27:07;99914.69;;;4.73;33.60
65013;BME280;51715;39.432;-77.518;2023-12-07T07:29:35;99911.33;;;4.74;33.44
65013;BME280;51715;39.432;-77.518;2023-12-07T07:32:03;99912.14;;;4.76;33.14
65013;BME280;51715;39.432;-77.518;2023-12-07T07:34:32;99916.16;;;5.24;33.07
65013;BME280;51715;39.432;-77.518;2023-12-07T07:37:00;99924.05;;;5.15;32.98
65013;BME280;51715;39.432;-77.518;2023-12-07T07:39:28;99926.41;;;5.36;32.94
65013;BME280;51715;39.432;-77.518;2023-12-07T07:41:57;99925.01;;;5.51;32.65
65013;BME280;51715;39.432;-77.518;2023-12-07T07:44:24;99923.74;;;5.42;32.49
65013;BME280;51715;39.432;-77.518;2023-12-07T07:46:53;99919.25;;;5.73;32.37
65013;BME280;51715;39.432;-77.518;2023-12-07T07:49:21;99920.61;;;5.20;32.35
65013;BME280;51715;39.432;-77.518;2023-12-07T07:51:50;99928.09;;;5.82;32.03
65013;BME280;51715;39.432;-77.518;2023-12-07T07:54:19;99938.00;;;5.61;32.08
65013;BME280;51715;39.432;-77.518;2023-12-07T07:56:47;99940.28;;;5.47;31.99
65013;BME280;51715;39.432;-77.518;2023-12-07T07:59:16;99937.42;;;4.78;31.94
65013;BME280;51715;39.432;-77.518;2023-12-07T08:01:46;99937.04;;;5.09;32.42
65013;BME280;51715;39.432;-77.518;2023-12-07T08:04:13;99939.55;;;5.11;32.50
65013;BME280;51715;39.432;-77.518;2023-12-07T08:06:41;99941.85;;;5.44;32.04
65013;BME280;51715;39.432;-77.518;2023-12-07T08:09:09;99946.87;;;5.73;31.75
65013;BME280;51715;39.432;-77.518;2023-12-07T08:11:37;99943.44;;;5.74;31.70
65013;BME280;51715;39.432;-77.518;2023-12-07T08:14:06;99948.06;;;5.67;31.44
65013;BME280;51715;39.432;-77.518;2023-12-07T08:16:34;99953.12;;;5.63;31.24
65013;BME280;51715;39.432;-77.518;2023-12-07T08:19:02;99952.63;;;5.36;31.22
65013;BME280;51715;39.432;-77.518;2023-12-07T08:21:30;99942.97;;;5.19;31.72
65013;BME280;51715;39.432;-77.518;2023-12-07T08:23:58;99948.93;;;5.39;31.63
65013;BME280;51715;39.432;-77.518;2023-12-07T08:26:26;99941.35;;;5.20;31.81
65013;BME280;51715;39.432;-77.518;2023-12-07T08:28:54;99933.81;;;5.12;31.78
65013;BME280;51715;39.432;-77.518;2023-12-07T08:31:22;99927.08;;;4.93;31.85
65013;BME280;51715;39.432;-77.518;2023-12-07T08:33:51;99933.11;;;5.15;31.95
65013;BME280;51715;39.432;-77.518;2023-12-07T08:36:19;99931.30;;;5.18;31.93
65013;BME280;51715;39.432;-77.518;2023-12-07T08:38:48;99939.09;;;5.03;32.05
65013;BME280;51715;39.432;-77.518;2023-12-07T08:41:15;99937.45;;;5.31;32.11
65013;BME280;51715;39.432;-77.518;2023-12-07T08:43:44;99917.52;;;5.16;32.06
65013;BME280;51715;39.432;-77.518;2023-12-07T08:46:12;99910.57;;;4.97;31.99
65013;BME280;51715;39.432;-77.518;2023-12-07T08:48:40;99915.15;;;5.41;32.19
65013;BME280;51715;39.432;-77.518;2023-12-07T08:51:08;99920.92;;;5.42;32.24
65013;BME280;51715;39.432;-77.518;2023-12-07T08:53:36;99931.29;;;5.19;32.26
65013;BME280;51715;39.432;-77.518;2023-12-07T08:56:05;99941.08;;;5.14;32.24
65013;BME280;51715;39.432;-77.518;2023-12-07T08:58:34;99949.09;;;5.54;32.10
65013;BME280;51715;39.432;-77.518;2023-12-07T09:01:02;99944.70;;;5.54;32.24
65013;BME280;51715;39.432;-77.518;2023-12-07T09:03:29;99938.72;;;5.47;32.42
65013;BME280;51715;39.432;-77.518;2023-12-07T09:05:57;99933.09;;;5.38;32.78
65013;BME280;51715;39.432;-77.518;2023-12-07T09:08:25;99933.41;;;5.26;32.82
65013;BME280;51715;39.432;-77.518;2023-12-07T09:10:53;99934.66;;;4.70;33.79
65013;BME280;51715;39.432;-77.518;2023-12-07T09:13:21;99953.22;;;4.78;33.73
65013;BME280;51715;39.432;-77.518;2023-12-07T09:15:49;99954.46;;;5.04;33.57
65013;BME280;51715;39.432;-77.518;2023-12-07T09:18:17;99950.05;;;4.77;33.65
65013;BME280;51715;39.432;-77.518;2023-12-07T09:20:45;99958.01;;;4.83;33.58
65013;BME280;51715;39.432;-77.518;2023-12-07T09:23:13;99956.26;;;5.22;33.61
65013;BME280;51715;39.432;-77.518;2023-12-07T09:25:41;99956.88;;;5.00;33.92
65013;BME280;51715;39.432;-77.518;2023-12-07T09:28:10;99966.75;;;5.15;33.84
65013;BME280;51715;39.432;-77.518;2023-12-07T09:30:38;99964.38;;;5.22;33.63
65013;BME280;51715;39.432;-77.518;2023-12-07T09:33:06;99954.26;;;5.36;33.64
65013;BME280;51715;39.432;-77.518;2023-12-07T09:35:33;99959.26;;;5.30;33.81
65013;BME280;51715;39.432;-77.518;2023-12-07T09:38:02;99951.55;;;5.02;34.22
65013;BME280;51715;39.432;-77.518;2023-12-07T09:40:30;99948.86;;;4.86;34.06
65013;BME280;51715;39.432;-77.518;2023-12-07T09:42:58;99950.71;;;5.26;34.18
65013;BME280;51715;39.432;-77.518;2023-12-07T09:45:26;99947.78;;;5.17;34.22
65013;BME280;51715;39.432;-77.518;2023-12-07T09:47:55;99936.03;;;5.19;34.14
65013;BME280;51715;39.432;-77.518;2023-12-07T09:50:26;99921.36;;;5.05;34.40
65013;BME280;51715;39.432;-77.518;2023-12-07T09:52:56;99922.15;;;4.96;34.51
65013;BME280;51715;39.432;-77.518;2023-12-07T09:55:25;99907.30;;;5.12;34.32
65013;BME280;51715;39.432;-77.518;2023-12-07T09:57:53;99909.88;;;5.08;34.49
65013;BME280;51715;39.432;-77.518;2023-12-07T10:00:21;99922.81;;;5.41;34.48
65013;BME280;51715;39.432;-77.518;2023-12-07T10:02:50;99941.48;;;5.32;34.29
65013;BME280;51715;39.432;-77.518;2023-12-07T10:05:19;99953.68;;;5.39;33.63
65013;BME280;51715;39.432;-77.518;2023-12-07T10:07:48;99955.59;;;5.34;33.60
65013;BME280;51715;39.432;-77.518;2023-12-07T10:10:17;99943.64;;;5.11;34.26
65013;BME280;51715;39.432;-77.518;2023-12-07T10:12:47;99959.37;;;5.49;34.02
65013;BME280;51715;39.432;-77.518;2023-12-07T10:15:17;99951.73;;;5.27;34.01
65013;BME280;51715;39.432;-77.518;2023-12-07T10:17:48;99968.83;;;5.14;34.21
65013;BME280;51715;39.432;-77.518;2023-12-07T10:20:17;99961.33;;;5.66;34.40
65013;BME280;51715;39.432;-77.518;2023-12-07T10:22:46;99951.74;;;5.29;33.43
65013;BME280;51715;39.432;-77.518;2023-12-07T10:25:15;99939.54;;;5.51;33.83
65013;BME280;51715;39.432;-77.518;2023-12-07T10:27:43;99942.28;;;5.49;34.11
65013;BME280;51715;39.432;-77.518;2023-12-07T10:30:12;99953.67;;;5.38;33.98
65013;BME280;51715;39.432;-77.518;2023-12-07T10:32:40;99945.21;;;5.61;34.21
65013;BME280;51715;39.432;-77.518;2023-12-07T10:35:09;99939.60;;;5.20;34.57
65013;BME280;51715;39.432;-77.518;2023-12-07T10:37:37;99951.41;;;5.35;34.68
65013;BME280;51715;39.432;-77.518;2023-12-07T10:40:06;99929.47;;;5.62;34.57
65013;BME280;51715;39.432;-77.518;2023-12-07T10:42:35;99913.52;;;5.63;34.41
65013;BME280;51715;39.432;-77.518;2023-12-07T10:45:06;99931.34;;;5.71;34.28
65013;BME280;51715;39.432;-77.518;2023-12-07T10:47:37;99913.87;;;5.69;34.34
65013;BME280;51715;39.432;-77.518;2023-12-07T10:50:08;99916.86;;;5.75;34.38
65013;BME280;51715;39.432;-77.518;2023-12-07T10:52:36;99925.01;;;5.66;34.25
65013;BME280;51715;39.432;-77.518;2023-12-07T10:55:10;99930.49;;;5.95;34.05
65013;BME280;51715;39.432;-77.518;2023-12-07T10:57:41;99931.55;;;5.88;34.26
65013;BME280;51715;39.432;-77.518;2023-12-07T11:00:11;99934.54;;;5.95;34.05
65013;BME280;51715;39.432;-77.518;2023-12-07T11:02:39;99942.26;;;5.79;33.86
65013;BME280;51715;39.432;-77.518;2023-12-07T11:05:09;99951.79;;;5.84;33.54
65013;BME280;51715;39.432;-77.518;2023-12-07T11:07:49;99947.85;;;6.12;33.32
65013;BME280;51715;39.432;-77.518;2023-12-07T11:10:23;99944.20;;;5.84;33.54
65013;BME280;51715;39.432;-77.518;2023-12-07T11:13:00;99946.76;;;5.96;33.70
65013;BME280;51715;39.432;-77.518;2023-12-07T11:15:29;99950.65;;;5.77;34.27
65013;BME280;51715;39.432;-77.518;2023-12-07T11:17:57;99955.27;;;5.84;34.13
65013;BME280;51715;39.432;-77.518;2023-12-07T11:20:39;99945.05;;;5.70;34.03
65013;BME280;51715;39.432;-77.518;2023-12-07T11:23:08;99952.50;;;5.49;34.10
65013;BME280;51715;39.432;-77.518;2023-12-07T11:25:37;99955.04;;;5.50;34.13
65013;BME280;51715;39.432;-77.518;2023-12-07T11:28:07;99946.27;;;5.72;34.26
65013;BME280;51715;39.432;-77.518;2023-12-07T11:30:36;99946.92;;;5.79;34.27
65013;BME280;51715;39.432;-77.518;2023-12-07T11:33:06;99941.35;;;5.93;34.35
65013;BME280;51715;39.432;-77.518;2023-12-07T11:35:33;99934.47;;;5.61;34.36
65013;BME280;51715;39.432;-77.518;2023-12-07T11:38:30;99939.55;;;5.45;34.69
65013;BME280;51715;39.432;-77.518;2023-12-07T11:40:59;99938.05;;;5.85;34.61
65013;BME280;51715;39.432;-77.518;2023-12-07T11:43:44;99921.33;;;5.92;34.67
65013;BME280;51715;39.432;-77.518;2023-12-07T11:46:12;99926.73;;;6.03;34.50
65013;BME280;51715;39.432;-77.518;2023-12-07T11:48:46;99925.07;;;5.64;34.53
65013;BME280;51715;39.432;-77.518;2023-12-07T11:51:15;99923.27;;;5.95;34.36
65013;BME280;51715;39.432;-77.518;2023-12-07T11:53:44;99920.72;;;5.81;34.66
65013;BME280;51715;39.432;-77.518;2023-12-07T11:56:12;99918.05;;;5.66;34.72
65013;BME280;51715;39.432;-77.518;2023-12-07T11:58:40;99921.44;;;5.83;34.69
65013;BME280;51715;39.432;-77.518;2023-12-07T12:01:08;99933.07;;;5.92;34.55
65013;BME280;51715;39.432;-77.518;2023-12-07T12:03:36;99935.61;;;5.79;34.40
65013;BME280;51715;39.432;-77.518;2023-12-07T12:06:05;99944.95;;;5.88;34.09
65013;BME280;51715;39.432;-77.518;2023-12-07T12:08:33;99945.79;;;6.10;34.09
65013;BME280;51715;39.432;-77.518;2023-12-07T12:11:02;99957.88;;;6.12;34.32
65013;BME280;51715;39.432;-77.518;2023-12-07T12:13:33;99954.28;;;5.89;35.14
65013;BME280;51715;39.432;-77.518;2023-12-07T12:16:02;99957.15;;;6.24;34.72
65013;BME280;51715;39.432;-77.518;2023-12-07T12:18:30;99947.11;;;5.88;34.56
65013;BME280;51715;39.432;-77.518;2023-12-07T12:20:59;99947.86;;;5.96;34.42
65013;BME280;51715;39.432;-77.518;2023-12-07T12:23:27;99941.73;;;6.31;34.29
65013;BME280;51715;39.432;-77.518;2023-12-07T12:25:54;99934.17;;;6.11;34.20
65013;BME280;51715;39.432;-77.518;2023-12-07T12:28:23;99923.39;;;6.12;34.19
65013;BME280;51715;39.432;-77.518;2023-12-07T12:30:52;99930.76;;;6.13;34.05
65013;BME280;51715;39.432;-77.518;2023-12-07T12:33:21;99936.63;;;6.18;33.95
65013;BME280;51715;39.432;-77.518;2023-12-07T12:36:01;99935.24;;;6.27;34.82
65013;BME280;51715;39.432;-77.518;2023-12-07T12:38:30;99937.30;;;6.00;35.20
65013;BME280;51715;39.432;-77.518;2023-12-07T12:40:58;99938.92;;;6.01;35.18
65013;BME280;51715;39.432;-77.518;2023-12-07T12:43:27;99942.13;;;6.51;35.30
65013;BME280;51715;39.432;-77.518;2023-12-07T12:45:57;99941.22;;;6.13;35.24
65013;BME280;51715;39.432;-77.518;2023-12-07T12:48:26;99940.07;;;5.87;35.06
65013;BME280;51715;39.432;-77.518;2023-12-07T12:50:54;99934.98;;;5.96;35.47
65013;BME280;51715;39.432;-77.518;2023-12-07T12:53:21;99936.79;;;6.35;35.85
65013;BME280;51715;39.432;-77.518;2023-12-07T12:55:50;99935.61;;;5.71;35.58
65013;BME280;51715;39.432;-77.518;2023-12-07T12:58:19;99931.10;;;6.06;35.50
65013;BME280;51715;39.432;-77.518;2023-12-07T13:00:48;99932.86;;;6.34;35.66